createdAt,value
2023-06-10T00:00:14.317Z,60.28
2023-06-10T00:02:43.866Z,60.11
2023-06-10T00:05:12.499Z,60.56
2023-06-10T00:07:42.185Z,60.57
2023-06-10T00:10:11.625Z,60.90
2023-06-10T00:12:40.249Z,61.30
2023-06-10T00:15:11.767Z,61.52
2023-06-10T00:17:42.034Z,61.97
2023-06-10T00:20:13.170Z,62.05
2023-06-10T00:22:42.730Z,62.35
2023-06-10T00:25:12.763Z,62.42
2023-06-10T00:27:41.438Z,62.60
2023-06-10T00:30:10.286Z,62.01
2023-06-10T00:32:39.323Z,62.66
2023-06-10T00:35:08.406Z,62.94
2023-06-10T00:37:37.326Z,63.34
2023-06-10T00:40:06.585Z,63.41
2023-06-10T00:42:35.152Z,63.87
2023-06-10T00:45:04.553Z,63.95
2023-06-10T00:47:33.534Z,63.82
2023-06-10T00:50:02.119Z,64.00
2023-06-10T00:52:31.494Z,64.05
2023-06-10T00:55:00.822Z,64.37
2023-06-10T00:57:30.407Z,64.77
2023-06-10T01:00:02.110Z,64.78
2023-06-10T01:02:30.835Z,65.32
2023-06-10T01:04:59.318Z,65.60
2023-06-10T01:07:36.788Z,65.73
2023-06-10T01:10:14.332Z,65.87
2023-06-10T01:12:51.401Z,66.08
2023-06-10T01:15:20.044Z,66.65
2023-06-10T01:18:05.734Z,66.79
2023-06-10T01:20:34.492Z,67.20
2023-06-10T01:23:05.061Z,67.18
2023-06-10T01:25:37.496Z,67.30
2023-06-10T01:28:17.606Z,67.45
2023-06-10T01:31:15.833Z,67.57
2023-06-10T01:33:53.760Z,67.99
2023-06-10T01:36:24.967Z,68.04
2023-06-10T01:38:55.744Z,68.22
2023-06-10T01:41:24.522Z,68.24
2023-06-10T01:43:53.154Z,68.32
2023-06-10T01:46:22.554Z,68.62
2023-06-10T01:48:51.409Z,68.83
2023-06-10T01:51:20.033Z,68.83
2023-06-10T01:53:48.268Z,69.04
2023-06-10T01:56:20.086Z,69.24
2023-06-10T01:58:50.450Z,69.41
2023-06-10T02:01:18.992Z,69.55
2023-06-10T02:03:47.256Z,70.15
2023-06-10T02:06:15.690Z,70.48
2023-06-10T02:08:43.939Z,70.87
2023-06-10T02:11:12.215Z,71.57
2023-06-10T02:13:41.148Z,71.55
2023-06-10T02:16:10.597Z,72.20
2023-06-10T02:18:39.448Z,72.62
2023-06-10T02:21:07.997Z,72.82
2023-06-10T02:23:36.562Z,73.10
2023-06-10T02:26:05.225Z,73.39
2023-06-10T02:28:33.646Z,73.82
2023-06-10T02:31:01.597Z,74.19
2023-06-10T02:33:29.857Z,74.47
2023-06-10T02:35:58.704Z,75.23
2023-06-10T02:38:27.108Z,75.21
2023-06-10T02:40:55.783Z,75.70
2023-06-10T02:43:24.294Z,75.76
2023-06-10T02:45:52.708Z,76.13
2023-06-10T02:48:20.973Z,76.50
2023-06-10T02:50:49.235Z,76.61
2023-06-10T02:53:17.501Z,77.23
2023-06-10T02:55:46.088Z,77.49
2023-06-10T02:58:14.389Z,77.91
2023-06-10T03:00:43.619Z,78.25
2023-06-10T03:03:11.969Z,78.88
2023-06-10T03:05:41.265Z,79.16
2023-06-10T03:08:09.459Z,79.66
2023-06-10T03:10:37.767Z,80.20
2023-06-10T03:13:06.320Z,80.78
2023-06-10T03:15:35.119Z,81.64
2023-06-10T03:18:03.753Z,82.32
2023-06-10T03:20:32.184Z,82.89
2023-06-10T03:23:00.542Z,83.60
2023-06-10T03:25:29.901Z,84.21
2023-06-10T03:27:58.141Z,84.92
2023-06-10T03:30:26.381Z,84.99
2023-06-10T03:32:54.668Z,85.29
2023-06-10T03:35:23.381Z,85.66
2023-06-10T03:37:51.965Z,85.96
2023-06-10T03:40:20.224Z,86.09
2023-06-10T03:42:48.464Z,86.29
2023-06-10T03:45:17.197Z,86.53
2023-06-10T03:47:46.399Z,86.63
2023-06-10T03:50:15.060Z,86.52
2023-06-10T03:52:43.438Z,86.56
2023-06-10T03:55:14.671Z,86.63
2023-06-10T03:57:43.116Z,86.71
2023-06-10T04:00:12.826Z,86.47
2023-06-10T04:02:47.292Z,86.68
2023-06-10T04:05:17.318Z,86.61
2023-06-10T04:07:46.109Z,86.73
2023-06-10T04:10:14.491Z,86.75
2023-06-10T04:12:43.097Z,86.75
2023-06-10T04:15:11.899Z,86.67
2023-06-10T04:17:41.224Z,86.64
2023-06-10T04:20:11.063Z,86.38
2023-06-10T04:22:39.323Z,86.42
2023-06-10T04:25:08.914Z,86.42
2023-06-10T04:27:37.452Z,85.88
2023-06-10T04:30:06.662Z,85.42
2023-06-10T04:32:35.044Z,85.74
2023-06-10T04:35:03.308Z,85.90
2023-06-10T04:37:31.626Z,86.11
2023-06-10T04:40:00.057Z,86.05
2023-06-10T04:42:28.258Z,86.10
2023-06-10T04:44:56.805Z,85.83
2023-06-10T04:47:25.202Z,86.25
2023-06-10T04:49:53.850Z,86.08
2023-06-10T04:52:22.118Z,85.88
2023-06-10T04:54:50.498Z,85.72
2023-06-10T04:57:19.493Z,85.98
2023-06-10T04:59:48.002Z,86.06
2023-06-10T05:02:16.260Z,85.80
2023-06-10T05:04:44.587Z,86.12
2023-06-10T05:07:12.928Z,86.06
2023-06-10T05:09:41.341Z,85.94
2023-06-10T05:12:10.182Z,86.13
2023-06-10T05:14:38.420Z,86.47
2023-06-10T05:17:07.794Z,86.98
2023-06-10T05:19:36.903Z,86.75
2023-06-10T05:22:05.474Z,86.87
2023-06-10T05:24:33.684Z,86.61
2023-06-10T05:27:02.079Z,86.44
2023-06-10T05:29:30.779Z,86.48
2023-06-10T05:32:03.262Z,85.74
2023-06-10T05:34:34.121Z,85.40
2023-06-10T05:37:02.630Z,85.56
2023-06-10T05:39:30.927Z,84.75
2023-06-10T05:41:59.993Z,84.03
2023-06-10T05:44:28.366Z,83.28
2023-06-10T05:46:56.729Z,82.97
2023-06-10T05:49:25.553Z,82.58
2023-06-10T05:51:54.166Z,81.44
2023-06-10T05:54:22.562Z,80.35
2023-06-10T05:56:50.948Z,79.90
2023-06-10T05:59:19.410Z,79.60
2023-06-10T06:01:47.628Z,77.96
2023-06-10T06:04:15.923Z,77.35
2023-06-10T06:06:44.354Z,76.48
2023-06-10T06:09:12.558Z,75.58
2023-06-10T06:11:40.959Z,73.80
2023-06-10T06:14:09.186Z,72.89
2023-06-10T06:16:37.503Z,72.84
2023-06-10T06:19:05.900Z,71.85
2023-06-10T06:21:34.105Z,71.08
2023-06-10T06:24:02.483Z,69.92
2023-06-10T06:26:31.024Z,68.99
2023-06-10T06:28:59.543Z,67.48
2023-06-10T06:31:28.165Z,67.18
2023-06-10T06:33:56.476Z,66.77
2023-06-10T06:36:25.202Z,66.34
2023-06-10T06:38:53.456Z,65.38
2023-06-10T06:41:22.950Z,64.74
2023-06-10T06:43:51.169Z,64.47
2023-06-10T06:46:19.395Z,63.66
2023-06-10T06:48:47.784Z,62.41
2023-06-10T06:51:16.139Z,62.03
2023-06-10T06:53:45.850Z,62.25
2023-06-10T06:56:14.554Z,62.05
2023-06-10T06:58:43.025Z,61.89
2023-06-10T07:01:11.271Z,62.01
2023-06-10T07:03:39.516Z,61.01
2023-06-10T07:06:07.821Z,60.82
2023-06-10T07:08:36.320Z,60.26
2023-06-10T07:11:04.605Z,59.83
2023-06-10T07:13:32.983Z,59.91
2023-06-10T07:16:01.194Z,59.25
2023-06-10T07:18:29.656Z,58.68
2023-06-10T07:20:58.098Z,58.53
2023-06-10T07:23:26.341Z,57.45
2023-06-10T07:25:54.771Z,57.50
2023-06-10T07:28:23.022Z,57.79
2023-06-10T07:30:51.603Z,57.40
2023-06-10T07:33:20.083Z,57.30
2023-06-10T07:35:48.445Z,56.72
2023-06-10T07:38:16.880Z,55.83
2023-06-10T07:40:45.194Z,55.58
2023-06-10T07:43:13.555Z,55.28
2023-06-10T07:45:45.223Z,55.94
2023-06-10T07:48:13.587Z,55.21
2023-06-10T07:50:42.164Z,55.05
2023-06-10T07:53:10.700Z,55.79
2023-06-10T07:55:39.111Z,55.36
2023-06-10T07:58:07.373Z,55.51
2023-06-10T08:00:35.736Z,55.27
2023-06-10T08:03:04.287Z,55.20
2023-06-10T08:05:32.730Z,54.96
2023-06-10T08:08:03.727Z,55.01
2023-06-10T08:10:32.738Z,54.94
2023-06-10T08:13:01.065Z,53.39
2023-06-10T08:15:29.333Z,54.63
2023-06-10T08:17:58.077Z,54.68
2023-06-10T08:20:26.537Z,53.89
2023-06-10T08:22:54.896Z,54.46
2023-06-10T08:25:23.710Z,54.96
2023-06-10T08:27:53.219Z,55.62
2023-06-10T08:30:21.594Z,55.13
2023-06-10T08:32:49.883Z,55.26
2023-06-10T08:35:18.092Z,55.66
2023-06-10T08:37:46.415Z,55.04
2023-06-10T08:40:15.095Z,54.87
2023-06-10T08:42:52.486Z,54.66
2023-06-10T08:45:21.157Z,54.66
2023-06-10T08:47:54.083Z,54.93
2023-06-10T08:50:23.269Z,55.11
2023-06-10T08:52:56.180Z,55.34
2023-06-10T08:55:44.238Z,55.80
2023-06-10T08:58:12.560Z,55.43
2023-06-10T09:00:41.168Z,55.04
2023-06-10T09:03:10.213Z,54.79
2023-06-10T09:05:38.829Z,56.24
2023-06-10T09:08:08.501Z,55.25
2023-06-10T09:10:37.035Z,53.99
2023-06-10T09:13:05.478Z,53.59
2023-06-10T09:15:33.861Z,54.78
2023-06-10T09:18:03.255Z,54.58
2023-06-10T09:20:31.672Z,54.78
2023-06-10T09:23:00.830Z,55.70
2023-06-10T09:25:40.731Z,55.20
2023-06-10T09:28:17.038Z,53.26
2023-06-10T09:30:45.285Z,53.06
2023-06-10T09:33:16.785Z,53.75
2023-06-10T09:35:49.794Z,54.78
2023-06-10T09:38:23.104Z,55.73
2023-06-10T09:40:56.121Z,53.85
2023-06-10T09:43:24.772Z,54.06
2023-06-10T09:45:58.588Z,53.37
2023-06-10T09:48:26.934Z,53.52
2023-06-10T09:50:55.181Z,53.48
2023-06-10T09:53:23.540Z,53.81
2023-06-10T09:55:52.330Z,52.92
2023-06-10T09:58:20.596Z,52.21
2023-06-10T10:00:55.545Z,52.02
2023-06-10T10:03:26.612Z,52.87
2023-06-10T10:06:01.899Z,53.23
2023-06-10T10:08:30.771Z,54.17
2023-06-10T10:10:59.940Z,53.35
2023-06-10T10:13:29.353Z,53.19
2023-06-10T10:16:02.244Z,53.91
2023-06-10T10:18:33.309Z,53.78
2023-06-10T10:21:09.036Z,53.36
2023-06-10T10:24:20.271Z,52.57
2023-06-10T10:26:50.692Z,53.24
2023-06-10T10:29:41.113Z,52.43
2023-06-10T10:32:09.884Z,52.16
2023-06-10T10:34:39.563Z,52.50
2023-06-10T10:37:07.905Z,51.50
2023-06-10T10:39:37.799Z,51.22
2023-06-10T10:42:10.864Z,50.75
2023-06-10T10:44:41.020Z,50.40
2023-06-10T10:47:13.416Z,50.51
2023-06-10T10:49:45.513Z,50.37
2023-06-10T10:52:14.461Z,50.98
2023-06-10T10:54:47.951Z,50.54
2023-06-10T10:57:17.504Z,50.75
2023-06-10T10:59:52.667Z,48.76
2023-06-10T11:02:44.734Z,50.29
2023-06-10T11:05:17.118Z,50.11
2023-06-10T11:07:57.355Z,50.57
2023-06-10T11:10:55.887Z,50.28
2023-06-10T11:13:24.547Z,49.13
2023-06-10T11:15:53.074Z,49.20
2023-06-10T11:18:34.150Z,50.56
2023-06-10T11:21:06.970Z,49.12
2023-06-10T11:23:36.269Z,48.73
2023-06-10T11:26:23.466Z,49.53
2023-06-10T11:28:57.528Z,48.17
2023-06-10T11:31:26.180Z,49.37
2023-06-10T11:34:07.457Z,48.96
2023-06-10T11:36:46.551Z,49.15
2023-06-10T11:39:15.739Z,48.46
2023-06-10T11:41:44.096Z,48.44
2023-06-10T11:44:18.250Z,48.43
2023-06-10T11:46:49.364Z,48.82
2023-06-10T11:49:17.614Z,48.40
2023-06-10T11:51:50.634Z,47.46
2023-06-10T11:54:19.691Z,47.14
2023-06-10T11:56:48.550Z,47.13
2023-06-10T11:59:16.860Z,46.54
2023-06-10T12:01:47.650Z,47.04
2023-06-10T12:04:19.239Z,45.75
2023-06-10T12:06:52.844Z,45.53
2023-06-10T12:09:33.566Z,45.56
2023-06-10T12:12:04.747Z,46.29
2023-06-10T12:15:03.874Z,45.16
2023-06-10T12:17:35.288Z,44.65
2023-06-10T12:20:11.090Z,44.79
2023-06-10T12:22:46.812Z,45.12
2023-06-10T12:25:16.136Z,44.96
2023-06-10T12:27:54.099Z,44.40
2023-06-10T12:30:27.422Z,42.85
2023-06-10T12:32:56.252Z,42.94
2023-06-10T12:35:26.745Z,43.49
2023-06-10T12:38:07.866Z,41.99
2023-06-10T12:40:41.064Z,43.13
2023-06-10T12:43:09.513Z,42.31
2023-06-10T12:45:40.702Z,42.48
2023-06-10T12:48:11.264Z,43.11
2023-06-10T12:50:44.384Z,43.08
2023-06-10T12:53:13.444Z,42.54
2023-06-10T12:55:41.665Z,46.44
2023-06-10T12:58:10.380Z,58.95
2023-06-10T13:00:38.596Z,61.32
2023-06-10T13:03:08.004Z,78.12
2023-06-10T13:05:39.978Z,97.75
2023-06-10T13:08:11.173Z,100.00
2023-06-10T13:10:39.823Z,100.00
2023-06-10T13:13:09.174Z,100.00
2023-06-10T13:15:42.648Z,100.00
2023-06-10T13:18:12.082Z,100.00
2023-06-10T13:20:40.487Z,100.00
2023-06-10T13:23:09.024Z,100.00
2023-06-10T13:25:37.285Z,100.00
2023-06-10T13:28:05.584Z,100.00
2023-06-10T13:30:33.847Z,100.00
2023-06-10T13:33:02.244Z,94.97
2023-06-10T13:35:30.482Z,85.95
2023-06-10T13:37:58.870Z,88.16
2023-06-10T13:40:27.056Z,87.84
2023-06-10T13:42:55.361Z,76.21
2023-06-10T13:45:23.718Z,69.59
2023-06-10T13:47:51.970Z,69.29
2023-06-10T13:50:20.341Z,66.88
2023-06-10T13:52:48.699Z,63.38
2023-06-10T13:55:17.676Z,59.77
2023-06-10T13:57:45.963Z,57.60
2023-06-10T14:00:15.100Z,61.73
2023-06-10T14:02:43.406Z,56.40
2023-06-10T14:05:12.009Z,55.05
2023-06-10T14:07:41.729Z,52.24
2023-06-10T14:10:10.804Z,49.72
2023-06-10T14:12:39.034Z,49.68
2023-06-10T14:15:07.906Z,46.61
2023-06-10T14:17:36.836Z,46.13
2023-06-10T14:20:05.271Z,50.83
2023-06-10T14:22:33.532Z,56.54
2023-06-10T14:25:01.747Z,46.14
2023-06-10T14:27:30.144Z,44.00
2023-06-10T14:29:58.346Z,42.68
2023-06-10T14:32:26.668Z,42.45
2023-06-10T14:34:54.986Z,43.45
2023-06-10T14:37:23.209Z,42.12
2023-06-10T14:39:51.446Z,42.70
2023-06-10T14:42:19.791Z,42.40
2023-06-10T14:44:48.009Z,46.67
2023-06-10T14:47:16.291Z,46.04
2023-06-10T14:49:44.885Z,50.25
2023-06-10T14:52:13.141Z,52.09
2023-06-10T14:54:41.342Z,53.59
2023-06-10T14:57:09.593Z,54.84
2023-06-10T14:59:37.796Z,56.04
2023-06-10T15:02:06.313Z,57.35
2023-06-10T15:04:34.556Z,58.44
2023-06-10T15:07:02.825Z,59.43
2023-06-10T15:09:31.220Z,60.48
2023-06-10T15:12:00.870Z,61.12
2023-06-10T15:14:29.293Z,62.38
2023-06-10T15:16:59.349Z,63.11
2023-06-10T15:19:28.219Z,63.13
2023-06-10T15:21:56.500Z,63.56
2023-06-10T15:24:24.758Z,63.41
2023-06-10T15:26:52.991Z,63.71
2023-06-10T15:29:21.357Z,63.44
2023-06-10T15:31:49.633Z,63.45
2023-06-10T15:34:17.848Z,62.27
2023-06-10T15:36:46.159Z,61.12
2023-06-10T15:39:14.409Z,60.11
2023-06-10T15:41:42.697Z,60.46
2023-06-10T15:44:10.986Z,60.44
2023-06-10T15:46:39.320Z,60.90
2023-06-10T15:49:07.608Z,61.65
2023-06-10T15:51:35.845Z,61.79
2023-06-10T15:54:04.291Z,60.98
2023-06-10T15:56:32.569Z,61.56
2023-06-10T15:59:00.967Z,61.59
2023-06-10T16:01:29.233Z,60.94
2023-06-10T16:03:57.562Z,59.86
2023-06-10T16:06:26.639Z,58.25
2023-06-10T16:08:54.815Z,57.54
2023-06-10T16:11:24.033Z,56.44
2023-06-10T16:13:52.287Z,57.51
2023-06-10T16:16:20.682Z,56.78
2023-06-10T16:18:49.160Z,57.65
2023-06-10T16:21:17.507Z,57.77
2023-06-10T16:23:45.802Z,56.71
2023-06-10T16:26:14.195Z,57.21
2023-06-10T16:28:42.793Z,55.96
2023-06-10T16:31:11.114Z,56.49
2023-06-10T16:33:39.526Z,56.18
2023-06-10T16:36:07.969Z,54.64
2023-06-10T16:38:36.525Z,55.33
2023-06-10T16:41:04.940Z,53.09
2023-06-10T16:43:33.421Z,53.34
2023-06-10T16:46:01.624Z,53.46
2023-06-10T16:48:30.071Z,52.84
2023-06-10T16:50:58.510Z,53.81
2023-06-10T16:53:26.743Z,55.01
2023-06-10T16:55:55.331Z,55.02
2023-06-10T16:58:24.540Z,54.35
2023-06-10T17:00:53.001Z,55.21
2023-06-10T17:03:21.308Z,55.14
2023-06-10T17:05:49.796Z,54.66
2023-06-10T17:08:18.158Z,55.14
2023-06-10T17:10:46.383Z,54.22
2023-06-10T17:13:14.736Z,53.58
2023-06-10T17:15:43.010Z,52.37
2023-06-10T17:18:11.500Z,52.92
2023-06-10T17:20:39.898Z,53.78
2023-06-10T17:23:08.877Z,53.75
2023-06-10T17:25:37.999Z,53.79
2023-06-10T17:28:06.335Z,54.90
2023-06-10T17:30:34.658Z,54.81
2023-06-10T17:33:03.071Z,54.47
2023-06-10T17:35:31.380Z,53.43
2023-06-10T17:37:59.599Z,53.47
2023-06-10T17:40:27.975Z,54.25
2023-06-10T17:42:56.246Z,54.67
2023-06-10T17:45:24.898Z,55.88
2023-06-10T17:47:53.425Z,55.31
2023-06-10T17:50:21.803Z,55.62
2023-06-10T17:52:50.310Z,55.24
2023-06-10T17:55:18.701Z,55.09
2023-06-10T17:57:46.938Z,55.05
2023-06-10T18:00:15.429Z,54.93
2023-06-10T18:02:44.042Z,55.32
2023-06-10T18:05:12.751Z,55.74
2023-06-10T18:07:42.274Z,56.62
2023-06-10T18:10:11.990Z,57.81
2023-06-10T18:12:40.420Z,58.61
2023-06-10T18:15:09.370Z,58.38
2023-06-10T18:17:38.018Z,59.23
2023-06-10T18:20:07.121Z,59.76
2023-06-10T18:22:35.353Z,60.38
2023-06-10T18:25:05.797Z,60.75
2023-06-10T18:27:35.776Z,60.63
2023-06-10T18:30:04.239Z,61.30
2023-06-10T18:32:32.511Z,61.47
2023-06-10T18:35:00.937Z,61.30
2023-06-10T18:37:29.355Z,61.02
2023-06-10T18:39:57.581Z,61.58
2023-06-10T18:42:26.084Z,61.56
2023-06-10T18:44:54.705Z,61.23
2023-06-10T18:47:23.111Z,61.60
2023-06-10T18:49:51.409Z,62.72
2023-06-10T18:52:19.653Z,63.64
2023-06-10T18:54:47.903Z,64.07
2023-06-10T18:57:16.122Z,63.83
2023-06-10T18:59:44.840Z,63.90
2023-06-10T19:02:13.203Z,64.13
2023-06-10T19:04:41.543Z,64.65
2023-06-10T19:07:09.819Z,65.18
2023-06-10T19:09:38.426Z,65.82
2023-06-10T19:12:07.627Z,65.88
2023-06-10T19:14:35.882Z,65.12
2023-06-10T19:17:04.299Z,64.80
2023-06-10T19:19:32.956Z,64.75
2023-06-10T19:22:01.287Z,64.84
2023-06-10T19:24:29.509Z,65.64
2023-06-10T19:26:57.844Z,65.23
2023-06-10T19:29:26.249Z,64.96
2023-06-10T19:31:54.538Z,64.98
2023-06-10T19:34:23.080Z,65.60
2023-06-10T19:36:51.326Z,66.43
2023-06-10T19:39:19.514Z,66.83
2023-06-10T19:41:48.051Z,68.41
2023-06-10T19:44:16.303Z,69.26
2023-06-10T19:46:46.024Z,69.86
2023-06-10T19:49:14.324Z,70.43
2023-06-10T19:51:43.136Z,71.28
2023-06-10T19:54:11.526Z,72.30
2023-06-10T19:56:39.765Z,73.73
2023-06-10T19:59:07.986Z,74.50
2023-06-10T20:01:36.282Z,74.97
2023-06-10T20:04:05.951Z,76.09
2023-06-10T20:06:34.431Z,76.37
2023-06-10T20:09:02.732Z,77.27
2023-06-10T20:11:31.131Z,77.55
2023-06-10T20:13:59.385Z,77.82
2023-06-10T20:16:28.118Z,78.28
2023-06-10T20:18:56.742Z,78.51
2023-06-10T20:21:25.332Z,79.06
2023-06-10T20:23:54.068Z,79.77
2023-06-10T20:26:22.511Z,80.49
2023-06-10T20:28:51.011Z,81.09
2023-06-10T20:31:20.423Z,81.53
2023-06-10T20:33:48.718Z,81.74
2023-06-10T20:36:16.933Z,82.73
2023-06-10T20:38:45.149Z,83.05
2023-06-10T20:41:13.549Z,82.97
2023-06-10T20:43:41.743Z,83.35
2023-06-10T20:46:10.049Z,83.67
2023-06-10T20:48:38.659Z,83.86
2023-06-10T20:51:06.959Z,83.70
2023-06-10T20:53:35.678Z,83.78
2023-06-10T20:56:03.880Z,83.98
2023-06-10T20:58:32.115Z,84.00
2023-06-10T21:01:01.515Z,84.04
2023-06-10T21:03:29.879Z,84.22
2023-06-10T21:05:58.173Z,83.18
2023-06-10T21:08:27.947Z,83.39
2023-06-10T21:10:56.532Z,83.17
2023-06-10T21:13:24.855Z,83.50
2023-06-10T21:15:53.102Z,83.66
2023-06-10T21:18:21.424Z,83.40
2023-06-10T21:20:49.792Z,83.57
2023-06-10T21:23:18.123Z,84.12
2023-06-10T21:25:46.449Z,81.80
2023-06-10T21:28:15.696Z,77.69
2023-06-10T21:30:44.391Z,72.61
2023-06-10T21:33:12.660Z,67.76
2023-06-10T21:35:41.828Z,65.08
2023-06-10T21:38:09.979Z,64.50
2023-06-10T21:40:38.334Z,63.04
2023-06-10T21:43:07.395Z,62.79
2023-06-10T21:45:35.822Z,62.08
2023-06-10T21:48:04.228Z,62.24
2023-06-10T21:50:32.578Z,62.17
2023-06-10T21:53:01.520Z,62.17
2023-06-10T21:55:30.023Z,62.05
2023-06-10T21:57:58.268Z,61.79
2023-06-10T22:00:26.546Z,61.22
2023-06-10T22:02:54.956Z,61.54
2023-06-10T22:05:23.409Z,61.65
2023-06-10T22:07:52.470Z,61.53
2023-06-10T22:10:21.031Z,61.97
2023-06-10T22:12:49.434Z,61.65
2023-06-10T22:15:17.727Z,61.71
2023-06-10T22:17:46.567Z,61.82
2023-06-10T22:20:15.079Z,61.92
2023-06-10T22:22:43.314Z,62.03
2023-06-10T22:25:11.725Z,61.84
2023-06-10T22:27:40.191Z,62.01
2023-06-10T22:30:09.165Z,61.92
2023-06-10T22:32:37.426Z,61.95
2023-06-10T22:35:07.123Z,62.74
2023-06-10T22:37:36.712Z,61.86
2023-06-10T22:40:06.106Z,61.75
2023-06-10T22:42:34.339Z,60.91
2023-06-10T22:45:02.802Z,60.62
2023-06-10T22:47:31.067Z,60.46
2023-06-10T22:49:59.366Z,59.63
2023-06-10T22:52:27.653Z,59.40
2023-06-10T22:54:55.911Z,59.12
2023-06-10T22:57:24.274Z,58.75
2023-06-10T22:59:52.668Z,58.28
2023-06-10T23:02:21.021Z,58.51
2023-06-10T23:04:49.411Z,58.32
2023-06-10T23:07:19.448Z,58.38
2023-06-10T23:09:47.921Z,58.64
2023-06-10T23:12:16.226Z,58.37
2023-06-10T23:14:44.467Z,57.92
2023-06-10T23:17:13.660Z,57.32
2023-06-10T23:19:44.098Z,57.04
2023-06-10T23:22:12.402Z,57.45
2023-06-10T23:24:44.230Z,56.91
2023-06-10T23:27:17.268Z,56.54
2023-06-10T23:32:20.873Z,56.79
2023-06-10T23:34:49.525Z,56.71
2023-06-10T23:37:20.765Z,56.90
2023-06-10T23:39:49.617Z,56.95
2023-06-10T23:42:18.541Z,57.19
2023-06-10T23:44:46.762Z,57.34
2023-06-10T23:47:15.060Z,56.80
2023-06-10T23:49:43.306Z,56.73
2023-06-10T23:52:12.759Z,56.72
2023-06-10T23:54:41.210Z,57.14
2023-06-10T23:57:09.539Z,57.27
2023-06-10T23:59:37.925Z,57.36
